sensor_id;sensor_type;location;lat;lon;timestamp;P1;durP1;ratioP1;P2;durP2;ratioP2
51925;SDS011;37952;51.938;15.480;2023-09-19T00:01:40;0.30;;;0.30;;
51925;SDS011;37952;51.938;15.480;2023-09-19T00:04:43;0.40;;;0.30;;
51925;SDS011;37952;51.938;15.480;2023-09-19T00:07:47;0.90;;;0.50;;
51925;SDS011;37952;51.938;15.480;2023-09-19T00:10:50;0.50;;;0.50;;
51925;SDS011;37952;51.938;15.480;2023-09-19T00:13:53;0.60;;;0.40;;
51925;SDS011;37952;51.938;15.480;2023-09-19T00:16:56;0.50;;;0.30;;
51925;SDS011;37952;51.938;15.480;2023-09-19T00:19:59;0.60;;;0.40;;
51925;SDS011;37952;51.938;15.480;2023-09-19T00:23:09;2.20;;;0.50;;
51925;SDS011;37952;51.938;15.480;2023-09-19T00:26:12;1.70;;;0.60;;
51925;SDS011;37952;51.938;15.480;2023-09-19T00:29:15;2.10;;;0.50;;
51925;SDS011;37952;51.938;15.480;2023-09-19T00:32:18;0.90;;;0.50;;
51925;SDS011;37952;51.938;15.480;2023-09-19T00:35:21;0.90;;;0.70;;
51925;SDS011;37952;51.938;15.480;2023-09-19T00:38:28;0.90;;;0.90;;
51925;SDS011;37952;51.938;15.480;2023-09-19T00:41:34;1.00;;;0.70;;
51925;SDS011;37952;51.938;15.480;2023-09-19T00:44:40;1.60;;;0.90;;
51925;SDS011;37952;51.938;15.480;2023-09-19T00:47:44;1.90;;;1.60;;
51925;SDS011;37952;51.938;15.480;2023-09-19T00:50:52;1.60;;;1.50;;
51925;SDS011;37952;51.938;15.480;2023-09-19T00:53:56;1.90;;;1.80;;
51925;SDS011;37952;51.938;15.480;2023-09-19T00:57:01;2.30;;;1.50;;
51925;SDS011;37952;51.938;15.480;2023-09-19T01:00:06;1.50;;;1.40;;
51925;SDS011;37952;51.938;15.480;2023-09-19T01:03:11;2.00;;;1.90;;
51925;SDS011;37952;51.938;15.480;2023-09-19T01:06:16;2.00;;;1.90;;
51925;SDS011;37952;51.938;15.480;2023-09-19T01:09:20;1.80;;;1.70;;
51925;SDS011;37952;51.938;15.480;2023-09-19T01:12:24;4.80;;;1.90;;
51925;SDS011;37952;51.938;15.480;2023-09-19T01:15:46;3.00;;;1.60;;
51925;SDS011;37952;51.938;15.480;2023-09-19T01:19:09;1.60;;;1.50;;
51925;SDS011;37952;51.938;15.480;2023-09-19T01:26:05;2.00;;;1.20;;
51925;SDS011;37952;51.938;15.480;2023-09-19T01:29:17;1.30;;;1.20;;
51925;SDS011;37952;51.938;15.480;2023-09-19T01:32:37;0.80;;;0.70;;
51925;SDS011;37952;51.938;15.480;2023-09-19T01:35:41;1.90;;;0.80;;
51925;SDS011;37952;51.938;15.480;2023-09-19T01:38:44;1.60;;;1.00;;
51925;SDS011;37952;51.938;15.480;2023-09-19T01:45:22;2.10;;;0.70;;
51925;SDS011;37952;51.938;15.480;2023-09-19T01:55:22;1.70;;;1.10;;
51925;SDS011;37952;51.938;15.480;2023-09-19T01:58:32;0.80;;;0.80;;
51925;SDS011;37952;51.938;15.480;2023-09-19T02:01:42;1.10;;;1.00;;
51925;SDS011;37952;51.938;15.480;2023-09-19T02:04:47;0.70;;;0.70;;
51925;SDS011;37952;51.938;15.480;2023-09-19T02:07:51;1.20;;;0.70;;
51925;SDS011;37952;51.938;15.480;2023-09-19T02:10:55;0.90;;;0.70;;
51925;SDS011;37952;51.938;15.480;2023-09-19T02:13:58;0.70;;;0.70;;
51925;SDS011;37952;51.938;15.480;2023-09-19T02:17:02;2.90;;;0.80;;
51925;SDS011;37952;51.938;15.480;2023-09-19T02:20:10;0.70;;;0.60;;
51925;SDS011;37952;51.938;15.480;2023-09-19T02:23:17;0.70;;;0.70;;
51925;SDS011;37952;51.938;15.480;2023-09-19T02:26:20;1.00;;;0.80;;
51925;SDS011;37952;51.938;15.480;2023-09-19T02:29:23;0.60;;;0.60;;
51925;SDS011;37952;51.938;15.480;2023-09-19T02:32:27;0.80;;;0.70;;
51925;SDS011;37952;51.938;15.480;2023-09-19T02:35:30;1.10;;;0.70;;
51925;SDS011;37952;51.938;15.480;2023-09-19T02:38:38;0.90;;;0.80;;
51925;SDS011;37952;51.938;15.480;2023-09-19T02:41:40;0.70;;;0.70;;
51925;SDS011;37952;51.938;15.480;2023-09-19T02:44:46;2.40;;;0.90;;
51925;SDS011;37952;51.938;15.480;2023-09-19T02:47:50;4.10;;;1.00;;
51925;SDS011;37952;51.938;15.480;2023-09-19T02:50:53;1.70;;;0.80;;
51925;SDS011;37952;51.938;15.480;2023-09-19T02:53:56;3.10;;;0.80;;
51925;SDS011;37952;51.938;15.480;2023-09-19T02:56:59;1.10;;;0.80;;
51925;SDS011;37952;51.938;15.480;2023-09-19T03:00:02;0.90;;;0.60;;
51925;SDS011;37952;51.938;15.480;2023-09-19T03:03:07;3.60;;;1.00;;
51925;SDS011;37952;51.938;15.480;2023-09-19T03:06:11;3.50;;;0.90;;
51925;SDS011;37952;51.938;15.480;2023-09-19T03:09:15;1.40;;;0.90;;
51925;SDS011;37952;51.938;15.480;2023-09-19T03:12:18;1.40;;;0.90;;
51925;SDS011;37952;51.938;15.480;2023-09-19T03:15:21;2.40;;;1.00;;
51925;SDS011;37952;51.938;15.480;2023-09-19T03:18:25;4.70;;;0.90;;
51925;SDS011;37952;51.938;15.480;2023-09-19T03:21:29;2.10;;;1.10;;
51925;SDS011;37952;51.938;15.480;2023-09-19T03:24:33;4.00;;;1.00;;
51925;SDS011;37952;51.938;15.480;2023-09-19T03:27:38;1.80;;;1.10;;
51925;SDS011;37952;51.938;15.480;2023-09-19T03:30:41;1.20;;;1.00;;
51925;SDS011;37952;51.938;15.480;2023-09-19T03:33:44;1.50;;;0.80;;
51925;SDS011;37952;51.938;15.480;2023-09-19T03:36:47;1.60;;;1.00;;
51925;SDS011;37952;51.938;15.480;2023-09-19T03:39:50;4.10;;;0.90;;
51925;SDS011;37952;51.938;15.480;2023-09-19T03:42:53;7.10;;;1.10;;
51925;SDS011;37952;51.938;15.480;2023-09-19T03:45:56;1.10;;;1.00;;
51925;SDS011;37952;51.938;15.480;2023-09-19T03:49:00;1.70;;;0.80;;
51925;SDS011;37952;51.938;15.480;2023-09-19T03:52:02;1.00;;;0.90;;
51925;SDS011;37952;51.938;15.480;2023-09-19T03:55:06;2.70;;;1.00;;
51925;SDS011;37952;51.938;15.480;2023-09-19T03:58:09;5.20;;;0.90;;
51925;SDS011;37952;51.938;15.480;2023-09-19T04:01:12;1.00;;;0.90;;
51925;SDS011;37952;51.938;15.480;2023-09-19T04:04:16;2.60;;;0.90;;
51925;SDS011;37952;51.938;15.480;2023-09-19T04:07:21;3.40;;;1.00;;
51925;SDS011;37952;51.938;15.480;2023-09-19T04:10:25;1.00;;;0.80;;
51925;SDS011;37952;51.938;15.480;2023-09-19T04:13:28;4.70;;;1.20;;
51925;SDS011;37952;51.938;15.480;2023-09-19T04:16:31;0.90;;;0.90;;
51925;SDS011;37952;51.938;15.480;2023-09-19T04:19:34;2.00;;;1.00;;
51925;SDS011;37952;51.938;15.480;2023-09-19T04:22:37;1.20;;;1.10;;
51925;SDS011;37952;51.938;15.480;2023-09-19T04:25:42;5.40;;;1.30;;
51925;SDS011;37952;51.938;15.480;2023-09-19T04:28:45;3.00;;;1.10;;
51925;SDS011;37952;51.938;15.480;2023-09-19T04:31:48;4.20;;;1.10;;
51925;SDS011;37952;51.938;15.480;2023-09-19T04:34:51;1.20;;;0.70;;
51925;SDS011;37952;51.938;15.480;2023-09-19T04:37:57;2.30;;;1.00;;
51925;SDS011;37952;51.938;15.480;2023-09-19T04:40:59;1.20;;;0.90;;
51925;SDS011;37952;51.938;15.480;2023-09-19T04:44:02;1.10;;;1.00;;
51925;SDS011;37952;51.938;15.480;2023-09-19T04:47:06;1.40;;;0.90;;
51925;SDS011;37952;51.938;15.480;2023-09-19T04:50:09;4.20;;;1.10;;
51925;SDS011;37952;51.938;15.480;2023-09-19T04:53:17;4.20;;;1.10;;
51925;SDS011;37952;51.938;15.480;2023-09-19T04:56:22;2.00;;;1.30;;
51925;SDS011;37952;51.938;15.480;2023-09-19T04:59:26;4.00;;;0.90;;
51925;SDS011;37952;51.938;15.480;2023-09-19T05:02:30;4.30;;;0.90;;
51925;SDS011;37952;51.938;15.480;2023-09-19T05:05:34;1.60;;;0.80;;
51925;SDS011;37952;51.938;15.480;2023-09-19T05:08:37;0.80;;;0.80;;
51925;SDS011;37952;51.938;15.480;2023-09-19T05:11:41;0.90;;;0.90;;
51925;SDS011;37952;51.938;15.480;2023-09-19T05:14:43;4.80;;;0.90;;
51925;SDS011;37952;51.938;15.480;2023-09-19T05:17:50;1.60;;;0.90;;
51925;SDS011;37952;51.938;15.480;2023-09-19T05:21:01;1.50;;;1.10;;
51925;SDS011;37952;51.938;15.480;2023-09-19T05:24:05;0.80;;;0.80;;
51925;SDS011;37952;51.938;15.480;2023-09-19T05:27:12;1.40;;;1.20;;
51925;SDS011;37952;51.938;15.480;2023-09-19T05:30:15;1.30;;;0.80;;
51925;SDS011;37952;51.938;15.480;2023-09-19T05:33:18;3.40;;;1.00;;
51925;SDS011;37952;51.938;15.480;2023-09-19T05:36:22;2.30;;;0.90;;
51925;SDS011;37952;51.938;15.480;2023-09-19T05:39:25;2.20;;;1.00;;
51925;SDS011;37952;51.938;15.480;2023-09-19T05:42:28;4.10;;;0.80;;
51925;SDS011;37952;51.938;15.480;2023-09-19T05:45:31;3.60;;;1.20;;
51925;SDS011;37952;51.938;15.480;2023-09-19T05:48:34;1.60;;;0.90;;
51925;SDS011;37952;51.938;15.480;2023-09-19T05:51:37;2.60;;;0.90;;
51925;SDS011;37952;51.938;15.480;2023-09-19T05:54:40;2.10;;;0.80;;
51925;SDS011;37952;51.938;15.480;2023-09-19T05:57:43;2.30;;;1.00;;
51925;SDS011;37952;51.938;15.480;2023-09-19T06:00:46;1.40;;;1.10;;
51925;SDS011;37952;51.938;15.480;2023-09-19T06:03:50;2.50;;;0.90;;
51925;SDS011;37952;51.938;15.480;2023-09-19T06:06:55;1.50;;;1.20;;
51925;SDS011;37952;51.938;15.480;2023-09-19T06:09:58;1.50;;;1.20;;
51925;SDS011;37952;51.938;15.480;2023-09-19T06:13:04;2.20;;;0.90;;
51925;SDS011;37952;51.938;15.480;2023-09-19T06:16:08;4.20;;;1.00;;
51925;SDS011;37952;51.938;15.480;2023-09-19T06:19:12;1.60;;;1.00;;
51925;SDS011;37952;51.938;15.480;2023-09-19T06:22:15;2.70;;;0.90;;
51925;SDS011;37952;51.938;15.480;2023-09-19T06:25:22;1.20;;;0.90;;
51925;SDS011;37952;51.938;15.480;2023-09-19T06:28:25;1.80;;;0.70;;
51925;SDS011;37952;51.938;15.480;2023-09-19T06:31:29;3.70;;;1.00;;
51925;SDS011;37952;51.938;15.480;2023-09-19T06:34:34;2.00;;;1.00;;
51925;SDS011;37952;51.938;15.480;2023-09-19T06:37:37;1.00;;;0.80;;
51925;SDS011;37952;51.938;15.480;2023-09-19T06:40:44;2.30;;;0.80;;
51925;SDS011;37952;51.938;15.480;2023-09-19T06:43:47;2.90;;;1.10;;
51925;SDS011;37952;51.938;15.480;2023-09-19T06:46:50;3.00;;;1.00;;
51925;SDS011;37952;51.938;15.480;2023-09-19T06:49:54;2.70;;;1.00;;
51925;SDS011;37952;51.938;15.480;2023-09-19T06:52:57;1.80;;;1.10;;
51925;SDS011;37952;51.938;15.480;2023-09-19T06:56:02;0.90;;;0.90;;
51925;SDS011;37952;51.938;15.480;2023-09-19T06:59:05;1.30;;;1.10;;
51925;SDS011;37952;51.938;15.480;2023-09-19T07:02:09;3.40;;;1.00;;
51925;SDS011;37952;51.938;15.480;2023-09-19T07:05:12;2.40;;;0.90;;
51925;SDS011;37952;51.938;15.480;2023-09-19T07:08:15;3.00;;;1.00;;
51925;SDS011;37952;51.938;15.480;2023-09-19T07:11:18;1.20;;;1.10;;
51925;SDS011;37952;51.938;15.480;2023-09-19T07:14:21;1.00;;;1.00;;
51925;SDS011;37952;51.938;15.480;2023-09-19T07:17:23;3.90;;;0.90;;
51925;SDS011;37952;51.938;15.480;2023-09-19T07:20:26;2.80;;;1.10;;
51925;SDS011;37952;51.938;15.480;2023-09-19T07:23:31;1.40;;;1.10;;
51925;SDS011;37952;51.938;15.480;2023-09-19T07:26:37;3.20;;;0.90;;
51925;SDS011;37952;51.938;15.480;2023-09-19T07:29:40;1.70;;;1.00;;
51925;SDS011;37952;51.938;15.480;2023-09-19T07:32:43;0.90;;;0.90;;
51925;SDS011;37952;51.938;15.480;2023-09-19T07:35:46;1.60;;;1.10;;
51925;SDS011;37952;51.938;15.480;2023-09-19T07:38:50;0.70;;;0.70;;
51925;SDS011;37952;51.938;15.480;2023-09-19T07:41:53;0.80;;;0.70;;
51925;SDS011;37952;51.938;15.480;2023-09-19T07:44:56;2.30;;;1.00;;
51925;SDS011;37952;51.938;15.480;2023-09-19T07:47:59;1.30;;;0.90;;
51925;SDS011;37952;51.938;15.480;2023-09-19T07:51:07;1.10;;;0.90;;
51925;SDS011;37952;51.938;15.480;2023-09-19T07:54:11;2.30;;;0.90;;
51925;SDS011;37952;51.938;15.480;2023-09-19T07:57:14;1.40;;;1.00;;
51925;SDS011;37952;51.938;15.480;2023-09-19T08:00:17;2.90;;;1.20;;
51925;SDS011;37952;51.938;15.480;2023-09-19T08:03:20;1.70;;;0.80;;
51925;SDS011;37952;51.938;15.480;2023-09-19T08:06:23;1.90;;;1.20;;
51925;SDS011;37952;51.938;15.480;2023-09-19T08:09:26;1.20;;;1.10;;
51925;SDS011;37952;51.938;15.480;2023-09-19T08:12:30;2.20;;;0.90;;
51925;SDS011;37952;51.938;15.480;2023-09-19T08:15:33;1.40;;;1.10;;
51925;SDS011;37952;51.938;15.480;2023-09-19T08:18:37;2.40;;;0.90;;
51925;SDS011;37952;51.938;15.480;2023-09-19T08:21:43;3.20;;;1.00;;
51925;SDS011;37952;51.938;15.480;2023-09-19T08:24:49;1.10;;;0.80;;
51925;SDS011;37952;51.938;15.480;2023-09-19T08:27:52;1.10;;;0.90;;
51925;SDS011;37952;51.938;15.480;2023-09-19T08:30:55;2.00;;;0.80;;
51925;SDS011;37952;51.938;15.480;2023-09-19T08:33:58;0.90;;;0.80;;
51925;SDS011;37952;51.938;15.480;2023-09-19T08:37:02;0.60;;;0.60;;
51925;SDS011;37952;51.938;15.480;2023-09-19T08:40:05;1.00;;;0.90;;
51925;SDS011;37952;51.938;15.480;2023-09-19T08:43:18;1.40;;;0.80;;
51925;SDS011;37952;51.938;15.480;2023-09-19T08:46:24;1.50;;;1.00;;
51925;SDS011;37952;51.938;15.480;2023-09-19T08:49:51;3.60;;;0.90;;
51925;SDS011;37952;51.938;15.480;2023-09-19T08:53:21;2.90;;;0.80;;
51925;SDS011;37952;51.938;15.480;2023-09-19T08:56:30;0.70;;;0.70;;
51925;SDS011;37952;51.938;15.480;2023-09-19T08:59:35;1.80;;;0.60;;
51925;SDS011;37952;51.938;15.480;2023-09-19T09:02:43;1.00;;;0.90;;
51925;SDS011;37952;51.938;15.480;2023-09-19T09:05:48;1.90;;;1.00;;
51925;SDS011;37952;51.938;15.480;2023-09-19T09:08:53;1.30;;;0.90;;
51925;SDS011;37952;51.938;15.480;2023-09-19T09:11:57;1.60;;;1.00;;
51925;SDS011;37952;51.938;15.480;2023-09-19T09:15:01;1.00;;;0.90;;
51925;SDS011;37952;51.938;15.480;2023-09-19T09:18:06;1.00;;;0.90;;
51925;SDS011;37952;51.938;15.480;2023-09-19T09:21:09;3.40;;;1.20;;
51925;SDS011;37952;51.938;15.480;2023-09-19T09:24:31;1.10;;;1.00;;
51925;SDS011;37952;51.938;15.480;2023-09-19T09:27:40;0.90;;;0.80;;
51925;SDS011;37952;51.938;15.480;2023-09-19T09:30:43;1.20;;;1.10;;
51925;SDS011;37952;51.938;15.480;2023-09-19T09:33:52;1.10;;;0.70;;
51925;SDS011;37952;51.938;15.480;2023-09-19T09:36:56;1.40;;;0.90;;
51925;SDS011;37952;51.938;15.480;2023-09-19T09:40:00;0.80;;;0.80;;
51925;SDS011;37952;51.938;15.480;2023-09-19T09:43:37;2.60;;;1.10;;
51925;SDS011;37952;51.938;15.480;2023-09-19T09:46:43;1.40;;;0.90;;
51925;SDS011;37952;51.938;15.480;2023-09-19T09:49:57;1.10;;;1.00;;
51925;SDS011;37952;51.938;15.480;2023-09-19T09:53:20;1.20;;;0.80;;
51925;SDS011;37952;51.938;15.480;2023-09-19T09:56:31;1.50;;;1.00;;
51925;SDS011;37952;51.938;15.480;2023-09-19T10:02:50;0.80;;;0.80;;
51925;SDS011;37952;51.938;15.480;2023-09-19T10:05:54;0.70;;;0.70;;
51925;SDS011;37952;51.938;15.480;2023-09-19T10:12:14;1.10;;;0.70;;
51925;SDS011;37952;51.938;15.480;2023-09-19T10:15:20;0.70;;;0.70;;
51925;SDS011;37952;51.938;15.480;2023-09-19T10:18:24;0.90;;;0.80;;
51925;SDS011;37952;51.938;15.480;2023-09-19T10:21:28;0.80;;;0.80;;
51925;SDS011;37952;51.938;15.480;2023-09-19T10:24:33;1.80;;;0.80;;
51925;SDS011;37952;51.938;15.480;2023-09-19T10:27:41;0.80;;;0.80;;
51925;SDS011;37952;51.938;15.480;2023-09-19T10:30:46;1.20;;;1.10;;
51925;SDS011;37952;51.938;15.480;2023-09-19T10:33:52;1.40;;;1.00;;
51925;SDS011;37952;51.938;15.480;2023-09-19T10:36:57;1.30;;;0.90;;
51925;SDS011;37952;51.938;15.480;2023-09-19T10:40:05;0.90;;;0.90;;
51925;SDS011;37952;51.938;15.480;2023-09-19T10:43:19;1.30;;;0.80;;
51925;SDS011;37952;51.938;15.480;2023-09-19T10:46:23;0.50;;;0.50;;
51925;SDS011;37952;51.938;15.480;2023-09-19T10:49:28;0.90;;;0.60;;
51925;SDS011;37952;51.938;15.480;2023-09-19T10:52:31;0.80;;;0.80;;
51925;SDS011;37952;51.938;15.480;2023-09-19T10:55:37;1.30;;;0.70;;
51925;SDS011;37952;51.938;15.480;2023-09-19T10:58:41;2.10;;;0.70;;
51925;SDS011;37952;51.938;15.480;2023-09-19T11:05:10;2.20;;;0.60;;
51925;SDS011;37952;51.938;15.480;2023-09-19T11:08:15;1.20;;;0.60;;
51925;SDS011;37952;51.938;15.480;2023-09-19T11:14:48;0.70;;;0.70;;
51925;SDS011;37952;51.938;15.480;2023-09-19T11:17:51;0.60;;;0.60;;
51925;SDS011;37952;51.938;15.480;2023-09-19T11:21:33;0.90;;;0.70;;
51925;SDS011;37952;51.938;15.480;2023-09-19T11:24:41;1.50;;;0.60;;
51925;SDS011;37952;51.938;15.480;2023-09-19T11:31:40;0.80;;;0.70;;
51925;SDS011;37952;51.938;15.480;2023-09-19T11:34:51;0.70;;;0.70;;
51925;SDS011;37952;51.938;15.480;2023-09-19T11:47:27;2.20;;;0.80;;
51925;SDS011;37952;51.938;15.480;2023-09-19T11:50:31;0.80;;;0.80;;
51925;SDS011;37952;51.938;15.480;2023-09-19T11:53:35;1.00;;;0.90;;
51925;SDS011;37952;51.938;15.480;2023-09-19T11:59:48;0.70;;;0.70;;
51925;SDS011;37952;51.938;15.480;2023-09-19T12:02:51;0.90;;;0.80;;
51925;SDS011;37952;51.938;15.480;2023-09-19T12:05:58;1.50;;;1.10;;
51925;SDS011;37952;51.938;15.480;2023-09-19T12:09:02;3.40;;;0.70;;
51925;SDS011;37952;51.938;15.480;2023-09-19T12:12:10;0.80;;;0.80;;
51925;SDS011;37952;51.938;15.480;2023-09-19T12:15:15;2.20;;;1.00;;
51925;SDS011;37952;51.938;15.480;2023-09-19T12:18:34;1.10;;;0.90;;
51925;SDS011;37952;51.938;15.480;2023-09-19T12:21:38;0.90;;;0.90;;
51925;SDS011;37952;51.938;15.480;2023-09-19T12:24:41;1.60;;;1.00;;
51925;SDS011;37952;51.938;15.480;2023-09-19T12:27:47;0.90;;;0.90;;
51925;SDS011;37952;51.938;15.480;2023-09-19T12:30:55;1.10;;;1.00;;
51925;SDS011;37952;51.938;15.480;2023-09-19T12:33:58;2.80;;;1.00;;
51925;SDS011;37952;51.938;15.480;2023-09-19T12:37:07;0.90;;;0.90;;
51925;SDS011;37952;51.938;15.480;2023-09-19T12:40:32;1.60;;;0.90;;
51925;SDS011;37952;51.938;15.480;2023-09-19T12:43:38;1.50;;;1.10;;
51925;SDS011;37952;51.938;15.480;2023-09-19T12:46:42;1.90;;;0.80;;
51925;SDS011;37952;51.938;15.480;2023-09-19T12:50:04;3.80;;;0.90;;
51925;SDS011;37952;51.938;15.480;2023-09-19T12:53:24;1.00;;;0.90;;
51925;SDS011;37952;51.938;15.480;2023-09-19T12:56:28;0.90;;;0.80;;
51925;SDS011;37952;51.938;15.480;2023-09-19T12:59:43;0.90;;;0.80;;
51925;SDS011;37952;51.938;15.480;2023-09-19T13:03:09;0.80;;;0.80;;
51925;SDS011;37952;51.938;15.480;2023-09-19T13:06:34;0.90;;;0.90;;
51925;SDS011;37952;51.938;15.480;2023-09-19T13:10:01;1.90;;;1.20;;
51925;SDS011;37952;51.938;15.480;2023-09-19T13:13:23;1.10;;;1.10;;
51925;SDS011;37952;51.938;15.480;2023-09-19T13:16:30;1.20;;;1.10;;
51925;SDS011;37952;51.938;15.480;2023-09-19T13:19:34;5.00;;;1.30;;
51925;SDS011;37952;51.938;15.480;2023-09-19T13:25:52;1.40;;;0.80;;
51925;SDS011;37952;51.938;15.480;2023-09-19T13:28:55;2.20;;;1.00;;
51925;SDS011;37952;51.938;15.480;2023-09-19T13:31:58;3.90;;;1.40;;
51925;SDS011;37952;51.938;15.480;2023-09-19T13:35:01;1.50;;;1.40;;
51925;SDS011;37952;51.938;15.480;2023-09-19T13:38:04;3.90;;;1.30;;
51925;SDS011;37952;51.938;15.480;2023-09-19T13:41:07;1.50;;;1.40;;
51925;SDS011;37952;51.938;15.480;2023-09-19T13:44:10;1.30;;;1.20;;
51925;SDS011;37952;51.938;15.480;2023-09-19T13:47:16;1.40;;;1.30;;
51925;SDS011;37952;51.938;15.480;2023-09-19T13:50:27;1.20;;;1.10;;
51925;SDS011;37952;51.938;15.480;2023-09-19T13:53:31;8.10;;;1.40;;
51925;SDS011;37952;51.938;15.480;2023-09-19T13:56:34;4.20;;;1.90;;
51925;SDS011;37952;51.938;15.480;2023-09-19T13:59:39;3.50;;;1.50;;
51925;SDS011;37952;51.938;15.480;2023-09-19T14:02:41;5.30;;;1.20;;
51925;SDS011;37952;51.938;15.480;2023-09-19T14:05:49;1.20;;;1.10;;
51925;SDS011;37952;51.938;15.480;2023-09-19T14:08:54;2.20;;;1.00;;
51925;SDS011;37952;51.938;15.480;2023-09-19T14:11:58;7.50;;;1.20;;
51925;SDS011;37952;51.938;15.480;2023-09-19T14:15:00;1.60;;;1.30;;
51925;SDS011;37952;51.938;15.480;2023-09-19T14:18:04;3.10;;;1.10;;
51925;SDS011;37952;51.938;15.480;2023-09-19T14:21:07;1.70;;;1.20;;
51925;SDS011;37952;51.938;15.480;2023-09-19T14:24:19;1.30;;;1.20;;
51925;SDS011;37952;51.938;15.480;2023-09-19T14:27:22;2.10;;;1.00;;
51925;SDS011;37952;51.938;15.480;2023-09-19T14:30:25;2.20;;;1.10;;
51925;SDS011;37952;51.938;15.480;2023-09-19T14:33:28;1.20;;;1.10;;
51925;SDS011;37952;51.938;15.480;2023-09-19T14:36:31;1.40;;;1.30;;
51925;SDS011;37952;51.938;15.480;2023-09-19T14:39:35;1.20;;;1.10;;
51925;SDS011;37952;51.938;15.480;2023-09-19T14:42:39;5.80;;;1.00;;
51925;SDS011;37952;51.938;15.480;2023-09-19T14:45:42;1.30;;;0.90;;
51925;SDS011;37952;51.938;15.480;2023-09-19T14:48:45;1.00;;;0.90;;
51925;SDS011;37952;51.938;15.480;2023-09-19T14:51:51;2.00;;;1.00;;
51925;SDS011;37952;51.938;15.480;2023-09-19T14:54:55;1.30;;;1.10;;
51925;SDS011;37952;51.938;15.480;2023-09-19T14:57:57;1.10;;;1.10;;
51925;SDS011;37952;51.938;15.480;2023-09-19T15:01:03;1.00;;;1.00;;
51925;SDS011;37952;51.938;15.480;2023-09-19T15:04:10;1.40;;;1.10;;
51925;SDS011;37952;51.938;15.480;2023-09-19T15:07:13;1.40;;;1.00;;
51925;SDS011;37952;51.938;15.480;2023-09-19T15:10:17;1.50;;;0.80;;
51925;SDS011;37952;51.938;15.480;2023-09-19T15:13:21;1.00;;;0.90;;
51925;SDS011;37952;51.938;15.480;2023-09-19T15:16:24;0.80;;;0.80;;
51925;SDS011;37952;51.938;15.480;2023-09-19T15:19:27;1.50;;;1.10;;
51925;SDS011;37952;51.938;15.480;2023-09-19T15:22:30;2.40;;;1.20;;
51925;SDS011;37952;51.938;15.480;2023-09-19T15:25:32;1.60;;;1.00;;
51925;SDS011;37952;51.938;15.480;2023-09-19T15:28:37;1.00;;;0.80;;
51925;SDS011;37952;51.938;15.480;2023-09-19T15:34:52;1.40;;;1.00;;
51925;SDS011;37952;51.938;15.480;2023-09-19T15:37:55;1.40;;;1.00;;
51925;SDS011;37952;51.938;15.480;2023-09-19T15:40:58;1.10;;;1.10;;
51925;SDS011;37952;51.938;15.480;2023-09-19T15:44:02;1.00;;;1.00;;
51925;SDS011;37952;51.938;15.480;2023-09-19T15:47:06;4.30;;;1.10;;
51925;SDS011;37952;51.938;15.480;2023-09-19T15:50:09;1.50;;;1.10;;
51925;SDS011;37952;51.938;15.480;2023-09-19T15:53:13;1.90;;;1.20;;
51925;SDS011;37952;51.938;15.480;2023-09-19T15:56:16;3.30;;;1.10;;
51925;SDS011;37952;51.938;15.480;2023-09-19T15:59:19;3.60;;;1.40;;
51925;SDS011;37952;51.938;15.480;2023-09-19T16:02:22;1.60;;;1.20;;
51925;SDS011;37952;51.938;15.480;2023-09-19T16:05:25;1.80;;;1.50;;
51925;SDS011;37952;51.938;15.480;2023-09-19T16:08:28;2.00;;;1.40;;
51925;SDS011;37952;51.938;15.480;2023-09-19T16:11:32;1.90;;;1.00;;
51925;SDS011;37952;51.938;15.480;2023-09-19T16:14:36;1.30;;;1.20;;
51925;SDS011;37952;51.938;15.480;2023-09-19T16:17:40;2.10;;;1.10;;
51925;SDS011;37952;51.938;15.480;2023-09-19T16:20:46;1.40;;;1.30;;
51925;SDS011;37952;51.938;15.480;2023-09-19T16:23:50;1.50;;;1.20;;
51925;SDS011;37952;51.938;15.480;2023-09-19T16:26:53;2.80;;;0.90;;
51925;SDS011;37952;51.938;15.480;2023-09-19T16:29:56;1.20;;;1.10;;
51925;SDS011;37952;51.938;15.480;2023-09-19T16:32:58;1.10;;;1.00;;
51925;SDS011;37952;51.938;15.480;2023-09-19T16:36:02;2.20;;;0.90;;
51925;SDS011;37952;51.938;15.480;2023-09-19T16:39:10;2.40;;;1.30;;
51925;SDS011;37952;51.938;15.480;2023-09-19T16:42:13;1.60;;;1.30;;
51925;SDS011;37952;51.938;15.480;2023-09-19T16:45:22;2.60;;;1.20;;
51925;SDS011;37952;51.938;15.480;2023-09-19T16:48:27;1.50;;;1.20;;
51925;SDS011;37952;51.938;15.480;2023-09-19T16:51:31;1.50;;;1.40;;
51925;SDS011;37952;51.938;15.480;2023-09-19T16:54:35;1.10;;;1.00;;
51925;SDS011;37952;51.938;15.480;2023-09-19T16:57:37;1.30;;;0.80;;
51925;SDS011;37952;51.938;15.480;2023-09-19T17:00:41;1.20;;;1.10;;
51925;SDS011;37952;51.938;15.480;2023-09-19T17:03:50;1.50;;;1.10;;
51925;SDS011;37952;51.938;15.480;2023-09-19T17:06:53;2.30;;;1.10;;
51925;SDS011;37952;51.938;15.480;2023-09-19T17:09:56;1.30;;;1.20;;
51925;SDS011;37952;51.938;15.480;2023-09-19T17:13:00;1.30;;;1.10;;
51925;SDS011;37952;51.938;15.480;2023-09-19T17:16:03;1.80;;;1.10;;
51925;SDS011;37952;51.938;15.480;2023-09-19T17:19:07;2.10;;;1.20;;
51925;SDS011;37952;51.938;15.480;2023-09-19T17:22:11;2.10;;;1.40;;
51925;SDS011;37952;51.938;15.480;2023-09-19T17:25:14;1.30;;;1.20;;
51925;SDS011;37952;51.938;15.480;2023-09-19T17:28:16;1.20;;;1.10;;
51925;SDS011;37952;51.938;15.480;2023-09-19T17:31:20;1.40;;;1.30;;
51925;SDS011;37952;51.938;15.480;2023-09-19T17:34:25;3.40;;;1.50;;
51925;SDS011;37952;51.938;15.480;2023-09-19T17:37:27;2.30;;;1.10;;
51925;SDS011;37952;51.938;15.480;2023-09-19T17:40:30;2.30;;;1.20;;
51925;SDS011;37952;51.938;15.480;2023-09-19T17:43:45;1.30;;;1.20;;
51925;SDS011;37952;51.938;15.480;2023-09-19T17:46:50;1.20;;;1.10;;
51925;SDS011;37952;51.938;15.480;2023-09-19T17:49:53;2.90;;;1.10;;
51925;SDS011;37952;51.938;15.480;2023-09-19T17:52:56;3.60;;;1.30;;
51925;SDS011;37952;51.938;15.480;2023-09-19T17:55:59;1.60;;;1.20;;
51925;SDS011;37952;51.938;15.480;2023-09-19T17:59:04;1.40;;;1.20;;
51925;SDS011;37952;51.938;15.480;2023-09-19T18:02:07;1.30;;;1.20;;
51925;SDS011;37952;51.938;15.480;2023-09-19T18:05:11;5.10;;;1.30;;
51925;SDS011;37952;51.938;15.480;2023-09-19T18:08:19;1.40;;;1.30;;
51925;SDS011;37952;51.938;15.480;2023-09-19T18:11:26;1.50;;;1.40;;
51925;SDS011;37952;51.938;15.480;2023-09-19T18:14:29;1.80;;;1.20;;
51925;SDS011;37952;51.938;15.480;2023-09-19T18:17:34;1.30;;;1.20;;
51925;SDS011;37952;51.938;15.480;2023-09-19T18:20:39;1.50;;;1.40;;
51925;SDS011;37952;51.938;15.480;2023-09-19T18:23:44;1.90;;;1.20;;
51925;SDS011;37952;51.938;15.480;2023-09-19T18:26:49;2.60;;;1.20;;
51925;SDS011;37952;51.938;15.480;2023-09-19T18:29:51;1.20;;;1.00;;
51925;SDS011;37952;51.938;15.480;2023-09-19T18:32:56;1.20;;;1.10;;
51925;SDS011;37952;51.938;15.480;2023-09-19T18:36:03;7.10;;;1.50;;
51925;SDS011;37952;51.938;15.480;2023-09-19T18:39:09;3.40;;;1.20;;
51925;SDS011;37952;51.938;15.480;2023-09-19T18:42:12;2.80;;;1.30;;
51925;SDS011;37952;51.938;15.480;2023-09-19T18:45:15;1.50;;;1.40;;
51925;SDS011;37952;51.938;15.480;2023-09-19T18:48:32;1.40;;;1.20;;
51925;SDS011;37952;51.938;15.480;2023-09-19T18:51:36;3.50;;;1.30;;
51925;SDS011;37952;51.938;15.480;2023-09-19T18:54:39;1.00;;;0.90;;
51925;SDS011;37952;51.938;15.480;2023-09-19T18:57:42;1.30;;;1.20;;
51925;SDS011;37952;51.938;15.480;2023-09-19T19:00:45;2.10;;;1.30;;
51925;SDS011;37952;51.938;15.480;2023-09-19T19:03:51;3.10;;;1.40;;
51925;SDS011;37952;51.938;15.480;2023-09-19T19:06:55;1.30;;;1.10;;
51925;SDS011;37952;51.938;15.480;2023-09-19T19:09:57;1.40;;;1.30;;